createdAt,value
2022-10-12T00:02:16.306Z,6.10
2022-10-12T00:07:18.895Z,5.00
2022-10-12T00:12:21.273Z,4.70
2022-10-12T00:17:23.696Z,5.80
2022-10-12T00:22:26.295Z,5.40
2022-10-12T00:27:28.697Z,4.80
2022-10-12T00:32:31.253Z,5.20
2022-10-12T00:37:33.778Z,4.40
2022-10-12T00:42:36.203Z,5.50
2022-10-12T00:47:44.804Z,5.30
2022-10-12T00:52:55.786Z,6.10
2022-10-12T00:57:58.852Z,6.10
2022-10-12T01:03:01.921Z,6.40
2022-10-12T01:08:04.464Z,6.30
2022-10-12T01:13:07.465Z,6.30
2022-10-12T01:18:19.039Z,5.00
2022-10-12T01:23:59.494Z,5.20
2022-10-12T01:29:36.965Z,4.40
2022-10-12T01:35:13.744Z,4.70
2022-10-12T01:40:23.910Z,5.70
2022-10-12T01:45:26.465Z,7.00
2022-10-12T01:50:41.557Z,9.60
2022-10-12T01:55:57.237Z,7.50
2022-10-12T02:01:38.717Z,9.20
2022-10-12T02:11:52.535Z,10.70
2022-10-12T02:17:00.395Z,6.80
2022-10-12T02:22:05.971Z,7.10
2022-10-12T02:27:11.071Z,7.30
2022-10-12T02:32:38.489Z,5.70
2022-10-12T02:37:46.435Z,5.30
2022-10-12T02:43:11.131Z,5.00
2022-10-12T02:48:20.537Z,5.40
2022-10-12T02:53:26.209Z,5.10
2022-10-12T02:58:28.688Z,5.40
2022-10-12T03:03:31.135Z,5.10
2022-10-12T03:08:33.958Z,4.50
2022-10-12T03:13:36.769Z,4.60
2022-10-12T03:18:39.839Z,4.90
2022-10-12T03:23:42.310Z,4.80
2022-10-12T03:28:45.286Z,4.80
2022-10-12T03:33:47.960Z,4.80
2022-10-12T03:38:50.351Z,4.20
2022-10-12T03:43:52.852Z,4.70
2022-10-12T03:48:55.355Z,5.10
2022-10-12T03:53:57.817Z,4.00
2022-10-12T03:59:00.281Z,5.50
2022-10-12T04:04:02.767Z,4.80
2022-10-12T04:09:05.255Z,4.30
2022-10-12T04:14:07.701Z,5.10
2022-10-12T04:19:13.450Z,4.70
2022-10-12T04:24:15.903Z,5.60
2022-10-12T04:29:18.353Z,6.00
2022-10-12T04:34:20.778Z,4.20
2022-10-12T04:39:23.770Z,4.80
2022-10-12T04:44:29.808Z,4.30
2022-10-12T04:49:34.559Z,4.70
2022-10-12T04:54:36.944Z,5.50
2022-10-12T04:59:39.352Z,5.20
2022-10-12T05:04:41.848Z,4.70
2022-10-12T05:09:44.300Z,4.90
2022-10-12T05:14:46.841Z,7.90
2022-10-12T05:19:49.237Z,6.90
2022-10-12T05:24:53.969Z,6.90
2022-10-12T05:29:56.572Z,8.10
2022-10-12T05:34:58.996Z,9.90
2022-10-12T05:40:02.991Z,9.70
2022-10-12T05:45:09.342Z,7.90
2022-10-12T05:50:11.826Z,6.90
2022-10-12T05:55:14.622Z,6.80
2022-10-12T06:00:19.265Z,5.50
2022-10-12T06:05:21.752Z,6.30
2022-10-12T06:10:27.738Z,5.80
2022-10-12T06:15:33.061Z,4.70
2022-10-12T06:20:36.246Z,6.00
2022-10-12T06:25:38.907Z,7.80
2022-10-12T06:30:43.368Z,10.00
2022-10-12T06:35:52.136Z,9.00
2022-10-12T06:40:54.879Z,9.10
2022-10-12T06:46:01.893Z,7.10
2022-10-12T06:51:04.686Z,7.60
2022-10-12T06:56:08.735Z,6.00
2022-10-12T07:01:11.327Z,5.30
2022-10-12T07:06:14.985Z,5.50
2022-10-12T07:11:17.407Z,5.30
2022-10-12T07:16:19.951Z,5.70
2022-10-12T07:21:22.709Z,5.20
2022-10-12T07:26:25.169Z,5.50
2022-10-12T07:31:28.762Z,5.60
2022-10-12T07:36:57.524Z,7.70
2022-10-12T07:41:54.403Z,8.20
2022-10-12T07:46:57.142Z,10.40
2022-10-12T07:51:59.711Z,7.40
2022-10-12T07:57:02.154Z,5.30
2022-10-12T08:02:04.829Z,5.40
2022-10-12T08:07:07.264Z,5.50
2022-10-12T08:12:10.817Z,6.70
2022-10-12T08:17:13.284Z,5.40
2022-10-12T08:22:15.775Z,5.90
2022-10-12T08:27:18.222Z,6.30
2022-10-12T08:32:22.096Z,7.10
2022-10-12T08:37:24.740Z,8.30
2022-10-12T08:42:41.192Z,8.10
2022-10-12T08:47:48.813Z,9.10
2022-10-12T08:53:00.134Z,11.70
2022-10-12T08:58:03.463Z,9.30
2022-10-12T09:03:42.743Z,6.20
2022-10-12T09:08:54.504Z,9.50
2022-10-12T09:14:08.659Z,6.00
2022-10-12T09:19:20.619Z,5.20
2022-10-12T09:24:26.705Z,5.50
2022-10-12T09:29:31.293Z,4.80
2022-10-12T09:34:34.747Z,5.10
2022-10-12T09:39:39.522Z,4.70
2022-10-12T09:44:48.268Z,6.50
2022-10-12T09:49:52.420Z,4.10
2022-10-12T09:55:05.273Z,4.20
2022-10-12T10:00:27.192Z,4.00
2022-10-12T10:05:34.786Z,3.50
2022-10-12T10:10:37.418Z,3.70
2022-10-12T10:15:43.420Z,3.60
2022-10-12T10:20:55.004Z,2.80
2022-10-12T10:26:09.400Z,2.50
2022-10-12T10:31:16.332Z,2.80
2022-10-12T10:36:23.214Z,2.40
2022-10-12T10:41:31.429Z,3.00
2022-10-12T10:46:37.525Z,3.00
2022-10-12T10:51:49.407Z,2.30
2022-10-12T10:56:56.702Z,2.70
2022-10-12T11:02:09.701Z,2.50
2022-10-12T11:07:51.502Z,2.30
2022-10-12T11:13:03.291Z,2.20
2022-10-12T11:18:20.979Z,2.80
2022-10-12T11:23:29.543Z,2.30
2022-10-12T11:28:34.357Z,2.00
2022-10-12T11:33:40.995Z,2.30
2022-10-12T11:38:48.360Z,2.20
2022-10-12T11:44:17.922Z,2.90
2022-10-12T11:49:31.327Z,2.70
2022-10-12T11:54:41.745Z,2.60
2022-10-12T11:59:47.954Z,1.90
2022-10-12T12:04:51.781Z,2.00
2022-10-12T12:09:54.848Z,2.30
2022-10-12T12:15:18.649Z,2.30
2022-10-12T12:20:43.086Z,1.90
2022-10-12T12:25:45.653Z,7.40
2022-10-12T12:31:07.038Z,2.90
2022-10-12T12:36:12.757Z,2.30
2022-10-12T12:41:34.433Z,2.00
2022-10-12T12:46:55.443Z,2.00
2022-10-12T12:51:58.054Z,1.90
2022-10-12T12:57:18.580Z,1.80
2022-10-12T13:02:53.585Z,1.60
2022-10-12T13:08:15.021Z,2.10
2022-10-12T13:13:39.288Z,2.20
2022-10-12T13:19:03.890Z,5.00
2022-10-12T13:24:33.449Z,1.90
2022-10-12T13:29:45.658Z,2.00
2022-10-12T13:34:54.835Z,1.70
2022-10-12T13:39:57.282Z,2.00
2022-10-12T13:45:03.304Z,2.50
2022-10-12T13:50:18.290Z,2.10
2022-10-12T13:55:26.621Z,2.00
2022-10-12T14:00:30.243Z,1.70
2022-10-12T14:05:33.649Z,1.70
2022-10-12T14:10:38.059Z,1.80
2022-10-12T14:15:41.400Z,2.00
2022-10-12T14:20:43.978Z,2.10
2022-10-12T14:25:55.317Z,1.90
2022-10-12T14:30:58.275Z,2.20
2022-10-12T14:36:27.192Z,2.50
2022-10-12T14:41:44.228Z,2.70
2022-10-12T14:47:10.752Z,5.20
2022-10-12T14:52:20.744Z,9.60
2022-10-12T14:57:24.907Z,12.30
2022-10-12T15:02:29.966Z,11.40
2022-10-12T15:07:34.039Z,11.40
2022-10-12T15:12:37.162Z,16.00
2022-10-12T15:17:39.586Z,17.30
2022-10-12T15:22:42.094Z,16.50
2022-10-12T15:27:44.678Z,12.10
2022-10-12T15:32:47.799Z,7.90
2022-10-12T15:37:51.229Z,5.40
2022-10-12T15:42:53.847Z,4.80
2022-10-12T15:47:56.337Z,5.00
2022-10-12T15:53:02.032Z,4.60
2022-10-12T15:58:04.683Z,5.70
2022-10-12T16:03:07.234Z,6.20
2022-10-12T16:08:09.837Z,8.00
2022-10-12T16:13:13.705Z,10.50
2022-10-12T16:18:16.616Z,11.40
2022-10-12T16:23:24.712Z,14.40
2022-10-12T16:28:29.773Z,12.10
2022-10-12T16:33:32.288Z,14.00
2022-10-12T16:38:36.240Z,17.40
2022-10-12T16:43:39.138Z,10.00
2022-10-12T16:48:41.540Z,15.60
2022-10-12T16:53:44.295Z,10.50
2022-10-12T16:58:48.318Z,8.10
2022-10-12T17:03:54.737Z,9.60
2022-10-12T17:09:01.095Z,7.60
2022-10-12T17:14:08.580Z,7.80
2022-10-12T17:19:16.823Z,7.00
2022-10-12T17:24:24.537Z,7.70
2022-10-12T17:29:31.899Z,5.40
2022-10-12T17:34:40.984Z,5.00
2022-10-12T17:39:47.830Z,5.10
2022-10-12T17:44:50.821Z,4.70
2022-10-12T17:49:53.414Z,5.90
2022-10-12T17:54:55.859Z,6.30
2022-10-12T17:59:58.295Z,6.50
2022-10-12T18:05:00.797Z,6.70
2022-10-12T18:10:04.956Z,6.00
2022-10-12T18:15:09.340Z,5.90
2022-10-12T18:20:12.957Z,6.10
2022-10-12T18:25:15.780Z,5.70
2022-10-12T18:30:18.435Z,5.70
2022-10-12T18:35:21.134Z,6.50
2022-10-12T18:40:23.633Z,6.80
2022-10-12T18:45:26.334Z,6.80
2022-10-12T18:50:28.818Z,7.90
2022-10-12T18:55:32.225Z,9.30
2022-10-12T19:00:34.687Z,9.40
2022-10-12T19:05:37.948Z,10.60
2022-10-12T19:10:41.087Z,8.40
2022-10-12T19:15:43.543Z,8.00
2022-10-12T19:20:46.007Z,7.90
2022-10-12T19:25:49.055Z,8.60
2022-10-12T19:30:54.038Z,8.80
2022-10-12T19:35:56.817Z,9.80
2022-10-12T19:41:01.097Z,9.00
2022-10-12T19:46:08.009Z,7.30
2022-10-12T19:51:14.216Z,9.20
2022-10-12T19:56:20.763Z,8.90
2022-10-12T20:01:27.391Z,8.50
2022-10-12T20:06:32.987Z,8.40
2022-10-12T20:11:35.755Z,7.80
2022-10-12T20:16:38.248Z,7.70
2022-10-12T20:21:40.796Z,8.40
2022-10-12T20:26:43.632Z,8.30
2022-10-12T20:31:46.249Z,7.90
2022-10-12T20:36:48.725Z,7.80
2022-10-12T20:41:51.167Z,7.70
2022-10-12T20:46:53.681Z,7.70
2022-10-12T20:51:56.353Z,8.30
2022-10-12T20:57:00.332Z,7.40
2022-10-12T21:02:05.745Z,7.40
2022-10-12T21:07:08.890Z,7.70
2022-10-12T21:12:11.812Z,8.30
2022-10-12T21:17:15.468Z,7.60
2022-10-12T21:22:18.610Z,8.00
2022-10-12T21:27:21.433Z,7.60
2022-10-12T21:32:23.885Z,8.20
2022-10-12T21:37:28.485Z,8.30
2022-10-12T21:42:30.912Z,8.90
2022-10-12T21:47:33.383Z,8.50
2022-10-12T21:52:36.149Z,9.00
2022-10-12T21:57:41.678Z,9.50
2022-10-12T22:02:44.113Z,7.90
2022-10-12T22:07:47.204Z,7.70
2022-10-12T22:12:49.823Z,8.00
2022-10-12T22:17:52.235Z,8.90
2022-10-12T22:22:54.713Z,7.70
2022-10-12T22:27:57.269Z,7.60
2022-10-12T22:32:59.621Z,7.70
2022-10-12T22:38:02.040Z,8.90
2022-10-12T22:43:04.435Z,8.50
2022-10-12T22:48:06.927Z,7.40
2022-10-12T22:53:09.588Z,7.60
2022-10-12T22:58:12.594Z,7.00
2022-10-12T23:03:15.127Z,7.90
2022-10-12T23:08:17.675Z,6.30
2022-10-12T23:13:20.191Z,7.20
2022-10-12T23:18:22.604Z,8.40
2022-10-12T23:23:25.212Z,7.50
2022-10-12T23:28:28.427Z,7.80
2022-10-12T23:33:31.004Z,7.30
2022-10-12T23:38:34.942Z,6.70
2022-10-12T23:43:37.715Z,6.60
2022-10-12T23:48:40.842Z,7.80
2022-10-12T23:53:43.509Z,7.50
2022-10-12T23:58:47.027Z,7.10
